Impacts TAF Board
For situational awareness. Not to be used for flight planning purposes.
IDs:

KASD - Slidell Arpt, LA, US

Issued at 2333 UTC 29 Jun 2022
Updated at 0418 UTC 30 Jun 2022
Potential Impact None Slight Moderate High
Time0353Z 30/05Z 30/06Z 30/07Z 30/08Z 30/09Z 30/10Z 30/11Z 30/12Z 30/13Z 30/14Z 30/15Z 30/16Z 30/17Z>>
Type OBS PRVL PRVL PRVL PRVL PRVL PRVL PRVL PRVL PRVL PRVL PRVL PRVL PRVL
VIS 10 >6 >6 >6 >6 >6 >6 >6 >6 >6 >6 >6 >6 >6
CIG -- 110 100 100 100 100 100 100 100 100 100 100 100 45
Cover CLR BKN BKN BKN BKN BKN BKN BKN BKN BKN BKN BKN BKN BKN
FltCat VFR VFR VFR VFR VFR VFR VFR VFR VFR VFR VFR VFR VFR VFR
WX -- -- VCTS VCTS VCTS VCTS VCTS VCTS VCTS VCTS VCTS VCTS VCTS -SHRA VCTS
WDir VRB VRB VRB VRB VRB VRB VRB VRB VRB VRB VRB VRB VRB 100
WSpd 0 0 3 3 3 3 3 3 3 3 3 3 3 6
WGst -- -- -- -- -- -- -- -- -- -- -- -- -- --
WSHgt -- -- -- -- -- -- -- -- -- -- -- -- -- --
WSDir -- -- -- -- -- -- -- -- -- -- -- -- -- --
WSSpd -- -- -- -- -- -- -- -- -- -- -- -- -- --
Raw TAF
KASD 292333Z 3000/3024 15005KT 5SM -TSRA SCT025CB BKN060 BKN250
  FM300115 00000KT P6SM SCT035 BKN110
  FM300600 VRB03KT P6SM VCTS SCT030CB BKN100
  FM301700 10006KT P6SM -SHRA VCTS SCT025CB BKN045


Raw METAR
KASD 300353Z AUTO 00000KT 10SM CLR 26/24 A3011 RMK AO2 SLP195 T02560239 TSNO
KASD 300253Z AUTO 00000KT 10SM CLR 26/24 A3008 RMK AO2 RAE34 SLP187 P0000 60004 T02610239 58003 TSNO
KASD 300153Z AUTO 16007KT 10SM -RA SCT070 26/23 A3009 RMK AO2 RAB27 SLP190 P0000 T02560233 TSNO

METAR Board
Radar Display
Forecast Discussion
For situational awareness. Not to be used for flight planning purposes.